Time;durP1;ratioP1;P1;durP2;ratioP2;P2;SDS_P1;SDS_P2;PMS_P1;PMS_P2;Temp;Humidity;BMP_temperature;BMP_pressure;BME280_temperature;BME280_humidity;BME280_pressure;Samples;Min_cycle;Max_cycle;Signal;HPM_P1;HPM_P2
2023/04/01 00:00:25;;;;;;;48.88;11.63;;;;;;;8.70;100.00;99109.19;4968750;28;20108;-86
2023/04/01 00:02:50;;;;;;;52.78;13.45;;;;;;;8.69;100.00;99107.47;4977401;28;20023;-86
2023/04/01 00:05:16;;;;;;;63.55;12.80;;;;;;;8.69;100.00;99113.53;4961179;28;20035;-86
2023/04/01 00:07:42;;;;;;;54.90;12.85;;;;;;;8.67;100.00;99111.97;4954680;28;20384;-85
2023/04/01 00:10:11;;;;;;;35.90;9.35;;;;;;;8.68;100.00;99117.09;4977211;28;20059;-85
2023/04/01 00:12:37;;;;;;;46.22;9.65;;;;;;;8.67;100.00;99111.97;4976796;28;20078;-87
2023/04/01 00:15:05;;;;;;;38.05;9.70;;;;;;;8.69;100.00;99128.38;4977158;28;20046;-88
2023/04/01 00:17:31;;;;;;;40.00;9.18;;;;;;;8.70;100.00;99120.44;4977170;28;20047;-88
2023/04/01 00:19:57;;;;;;;34.45;7.90;;;;;;;8.68;100.00;99118.84;4960659;28;20105;-88
2023/04/01 00:22:24;;;;;;;36.22;8.52;;;;;;;8.64;100.00;99113.81;4976935;28;20105;-88
2023/04/01 00:24:50;;;;;;;43.35;8.75;;;;;;;8.63;100.00;99122.56;4976386;28;20030;-86
2023/04/01 00:27:16;;;;;;;39.75;9.38;;;;;;;8.61;100.00;99111.41;4960031;28;20357;-86
2023/04/01 00:29:43;;;;;;;37.67;9.63;;;;;;;8.60;100.00;99121.91;4976792;28;20258;-86
2023/04/01 00:32:08;;;;;;;39.78;9.05;;;;;;;8.59;100.00;99126.31;4976995;28;20072;-86
2023/04/01 00:34:34;;;;;;;36.58;9.70;;;;;;;8.59;100.00;99122.88;4944601;28;20030;-86
2023/04/01 00:37:00;;;;;;;31.50;8.02;;;;;;;8.60;100.00;99124.53;4944532;28;20242;-86
2023/04/01 00:39:26;;;;;;;33.78;9.18;;;;;;;8.60;100.00;99129.75;4976688;28;20033;-86
2023/04/01 00:41:52;;;;;;;36.40;9.77;;;;;;;8.60;100.00;99127.13;4953433;28;20035;-86
2023/04/01 00:44:23;;;;;;;30.67;7.43;;;;;;;8.58;100.00;99137.66;4960203;28;20172;-86
2023/04/01 00:46:49;;;;;;;33.08;8.27;;;;;;;8.60;100.00;99146.25;4975960;28;20026;-85
2023/04/01 00:49:18;;;;;;;38.88;7.95;;;;;;;8.58;100.00;99142.88;4960512;28;20046;-86
2023/04/01 00:51:47;;;;;;;39.20;8.98;;;;;;;8.52;100.00;99142.44;4976561;28;20026;-86
2023/04/01 00:54:15;;;;;;;35.63;8.80;;;;;;;8.52;100.00;99145.03;4976773;28;20027;-86
2023/04/01 00:56:49;;;;;;;33.50;7.95;;;;;;;8.47;100.00;99155.72;4977133;28;20031;-86
2023/04/01 00:59:22;;;;;;;40.15;10.43;;;;;;;8.48;100.00;99151.34;4976639;28;20344;-86
2023/04/01 01:01:49;;;;;;;28.88;7.80;;;;;;;8.50;100.00;99157.34;4975594;28;20106;-86
2023/04/01 01:04:22;;;;;;;38.00;7.65;;;;;;;8.54;100.00;99154.44;4944705;28;20349;-86
2023/04/01 01:07:11;;;;;;;29.40;8.60;;;;;;;8.52;100.00;99160.69;4975613;28;20031;-86
2023/04/01 01:09:39;;;;;;;36.28;8.95;;;;;;;8.51;100.00;99159.81;4975346;28;20273;-86
2023/04/01 01:12:18;;;;;;;42.60;9.35;;;;;;;8.50;100.00;99166.00;4975320;28;20269;-86
2023/04/01 01:15:07;;;;;;;37.67;9.43;;;;;;;8.52;100.00;99160.69;4975628;28;20027;-86
2023/04/01 01:17:44;;;;;;;33.50;7.88;;;;;;;8.55;100.00;99157.88;4975561;28;21251;-86
2023/04/01 01:20:31;;;;;;;32.17;7.40;;;;;;;8.55;100.00;99166.56;4975649;28;20070;-86
2023/04/01 01:23:47;;;;;;;28.98;6.97;;;;;;;8.51;100.00;99166.81;4975414;28;20027;-86
2023/04/01 01:26:44;;;;;;;20.80;5.95;;;;;;;8.52;100.00;99177.16;4938672;29;20239;-86
2023/04/01 01:29:31;;;;;;;22.45;6.10;;;;;;;8.53;100.00;99176.25;4955093;29;20046;-85
2023/04/01 01:32:25;;;;;;;25.75;6.90;;;;;;;8.54;100.00;99179.69;4971568;28;20238;-85
2023/04/01 01:35:21;;;;;;;22.48;5.90;;;;;;;8.52;100.00;99182.41;4975099;28;20027;-86
2023/04/01 01:38:01;;;;;;;16.83;5.30;;;;;;;8.53;100.00;99173.66;4975141;28;20057;-86
2023/04/01 01:40:32;;;;;;;19.67;4.97;;;;;;;8.54;100.00;99183.13;4975405;28;20246;-86
2023/04/01 01:43:04;;;;;;;18.77;5.35;;;;;;;8.54;100.00;99183.13;4976028;28;20031;-86
2023/04/01 01:45:31;;;;;;;17.63;5.47;;;;;;;8.50;100.00;99181.66;4975586;28;20038;-86
2023/04/01 01:47:59;;;;;;;17.25;5.78;;;;;;;8.53;100.00;99180.63;4958223;28;20373;-86
2023/04/01 01:50:26;;;;;;;14.10;5.32;;;;;;;8.49;100.00;99187.78;4975394;28;20238;-85
2023/04/01 01:53:00;;;;;;;14.98;4.80;;;;;;;8.50;100.00;99189.47;4958667;28;20218;-86
2023/04/01 01:55:37;;;;;;;15.13;4.50;;;;;;;8.47;100.00;99191.41;4975268;28;20027;-86
2023/04/01 01:58:28;;;;;;;10.85;4.70;;;;;;;8.43;100.00;99195.97;4976647;28;20328;-86
2023/04/01 02:00:57;;;;;;;12.43;4.72;;;;;;;8.47;100.00;99200.06;4976161;28;20415;-86
2023/04/01 02:03:25;;;;;;;15.40;5.00;;;;;;;8.47;100.00;99194.84;4975627;28;20037;-86
2023/04/01 02:05:54;;;;;;;16.00;4.93;;;;;;;8.48;100.00;99201.78;4974307;28;20349;-86
2023/04/01 02:08:26;;;;;;;13.82;4.03;;;;;;;8.52;100.00;99207.66;4975105;28;20338;-86
2023/04/01 02:11:01;;;;;;;13.98;4.20;;;;;;;8.53;100.00;99211.94;4976220;28;20393;-86
2023/04/01 02:13:47;;;;;;;8.70;3.63;;;;;;;8.54;100.00;99206.63;4975466;28;20039;-86
2023/04/01 02:16:38;;;;;;;12.05;3.47;;;;;;;8.57;100.00;99216.88;4975150;28;20269;-86
2023/04/01 02:19:07;;;;;;;12.95;4.10;;;;;;;8.57;100.00;99221.28;4974942;28;20033;-86
2023/04/01 02:21:37;;;;;;;12.82;3.55;;;;;;;8.59;100.00;99225.47;4974802;28;20337;-86
2023/04/01 02:24:08;;;;;;;10.38;3.90;;;;;;;8.61;100.00;99226.22;4975685;28;20236;-85
2023/04/01 02:26:34;;;;;;;11.80;4.47;;;;;;;8.58;100.00;99225.53;4974620;28;20372;-85
2023/04/01 02:29:03;;;;;;;10.15;3.97;;;;;;;8.61;100.00;99228.81;4975175;28;20034;-85
2023/04/01 02:31:30;;;;;;;12.70;3.70;;;;;;;8.60;100.00;99232.38;4975004;28;20031;-85
2023/04/01 02:33:56;;;;;;;7.15;3.20;;;;;;;8.61;100.00;99231.44;4975103;28;20073;-85
2023/04/01 02:36:21;;;;;;;10.75;3.22;;;;;;;8.64;100.00;99233.88;4975310;28;20042;-86
2023/04/01 02:38:52;;;;;;;5.85;3.53;;;;;;;8.63;100.00;99240.00;4958310;28;20035;-85
2023/04/01 02:41:18;;;;;;;14.63;4.53;;;;;;;8.60;100.00;99239.34;4959619;28;20441;-85
2023/04/01 02:43:43;;;;;;;8.43;4.20;;;;;;;8.61;100.00;99247.09;4957802;28;20060;-85
2023/04/01 02:46:11;;;;;;;8.07;4.32;;;;;;;8.59;100.00;99243.72;4975546;28;20027;-85
2023/04/01 02:48:37;;;;;;;9.83;4.40;;;;;;;8.59;100.00;99248.13;4975482;28;20463;-86
2023/04/01 02:51:02;;;;;;;14.88;5.47;;;;;;;8.58;100.00;99238.59;4976699;28;20292;-86
2023/04/01 02:53:28;;;;;;;7.70;5.38;;;;;;;8.61;100.00;99248.88;4959310;28;20089;-85
2023/04/01 02:55:53;;;;;;;7.93;4.68;;;;;;;8.59;100.00;99251.56;4975053;28;20039;-85
2023/04/01 02:58:19;;;;;;;8.75;4.88;;;;;;;8.56;100.00;99254.34;4959002;28;20031;-86
2023/04/01 03:00:44;;;;;;;8.48;5.50;;;;;;;8.56;100.00;99258.72;4958772;28;20039;-86
2023/04/01 03:03:10;;;;;;;6.43;5.82;;;;;;;8.53;100.00;99259.75;4959164;28;20330;-86
2023/04/01 03:05:35;;;;;;;9.18;6.55;;;;;;;8.55;100.00;99264.84;4978744;28;20314;-86
2023/04/01 03:08:02;;;;;;;11.05;7.43;;;;;;;8.54;100.00;99277.06;4978325;28;20084;-86
2023/04/01 03:10:27;;;;;;;12.85;7.57;;;;;;;8.54;100.00;99274.47;4978801;28;20261;-86
2023/04/01 03:12:53;;;;;;;11.70;8.27;;;;;;;8.54;100.00;99282.28;4946207;28;20038;-86
2023/04/01 03:15:18;;;;;;;21.52;10.15;;;;;;;8.54;100.00;99284.91;4978834;28;20294;-86
2023/04/01 03:17:44;;;;;;;20.05;10.88;;;;;;;8.56;100.00;99288.25;4962507;28;20122;-85
2023/04/01 03:20:11;;;;;;;21.88;10.20;;;;;;;8.58;100.00;99291.63;4962613;28;20042;-86
2023/04/01 03:22:37;;;;;;;21.58;11.02;;;;;;;8.56;100.00;99295.25;4979020;28;20089;-86
2023/04/01 03:25:03;;;;;;;27.30;12.43;;;;;;;8.58;100.00;99303.84;4979149;28;20039;-86
2023/04/01 03:27:28;;;;;;;26.15;12.30;;;;;;;8.55;100.00;99310.06;4955719;28;20206;-86
2023/04/01 03:29:54;;;;;;;22.58;10.38;;;;;;;8.56;100.00;99310.91;4946270;28;20413;-86
2023/04/01 03:32:19;;;;;;;28.88;11.98;;;;;;;8.54;100.00;99311.00;4979589;28;20049;-86
2023/04/01 03:34:45;;;;;;;25.50;12.10;;;;;;;8.52;100.00;99317.25;4961964;28;20353;-86
2023/04/01 03:37:10;;;;;;;36.13;12.57;;;;;;;8.52;100.00;99325.06;4962696;28;20030;-85
2023/04/01 03:39:35;;;;;;;31.90;11.70;;;;;;;8.52;100.00;99322.47;4979441;28;20038;-86
2023/04/01 03:42:01;;;;;;;33.03;12.57;;;;;;;8.52;100.00;99332.91;4979677;28;20226;-86
2023/04/01 03:44:31;;;;;;;30.33;10.93;;;;;;;8.52;100.00;99333.72;4961947;28;20041;-86
2023/04/01 03:46:56;;;;;;;24.98;12.05;;;;;;;8.51;100.00;99339.84;4979118;28;20035;-85
2023/04/01 03:49:22;;;;;;;25.80;11.85;;;;;;;8.52;100.00;99345.94;4978312;28;20161;-86
2023/04/01 03:51:47;;;;;;;29.17;11.52;;;;;;;8.52;100.00;99351.16;4978621;28;20079;-86
2023/04/01 03:54:13;;;;;;;38.13;12.20;;;;;;;8.50;100.00;99350.41;4979619;28;20046;-86
2023/04/01 03:56:38;;;;;;;35.35;12.02;;;;;;;8.51;100.00;99354.69;4977797;28;20037;-86
2023/04/01 03:59:06;;;;;;;28.50;12.63;;;;;;;8.52;100.00;99348.53;4961965;28;20050;-86
2023/04/01 04:01:31;;;;;;;29.90;11.63;;;;;;;8.54;100.00;99354.53;4984428;28;20369;-86
2023/04/01 04:03:57;;;;;;;32.40;12.63;;;;;;;8.57;100.00;99364.78;4976528;28;20038;-86
2023/04/01 04:06:23;;;;;;;30.67;12.45;;;;;;;8.58;100.00;99361.25;4977710;28;20284;-86
2023/04/01 04:08:49;;;;;;;32.67;12.63;;;;;;;8.58;100.00;99366.47;4977376;28;20227;-86
2023/04/01 04:11:15;;;;;;;25.05;10.90;;;;;;;8.59;100.00;99369.00;4961973;28;20935;-86
2023/04/01 04:13:41;;;;;;;35.00;11.45;;;;;;;8.60;100.00;99385.47;4977653;28;20361;-86
2023/04/01 04:16:07;;;;;;;29.90;11.77;;;;;;;8.59;100.00;99386.41;4977946;28;20065;-86
2023/04/01 04:18:32;;;;;;;27.95;11.30;;;;;;;8.62;100.00;99392.31;4977831;28;20045;-86
2023/04/01 04:20:58;;;;;;;27.38;11.68;;;;;;;8.61;100.00;99390.63;4977183;28;20035;-86
2023/04/01 04:23:23;;;;;;;27.55;11.55;;;;;;;8.62;100.00;99394.06;4978151;28;20057;-86
2023/04/01 04:25:55;;;;;;;23.90;10.50;;;;;;;8.63;100.00;99401.81;4977117;28;20041;-86
2023/04/01 04:28:20;;;;;;;23.23;11.32;;;;;;;8.64;100.00;99406.13;4978814;28;20155;-86
2023/04/01 04:30:46;;;;;;;20.42;10.45;;;;;;;8.66;100.00;99406.03;4978142;28;20039;-86
2023/04/01 04:33:11;;;;;;;22.60;10.20;;;;;;;8.65;100.00;99415.59;4980030;28;20057;-86
2023/04/01 04:35:37;;;;;;;19.90;10.27;;;;;;;8.66;100.00;99416.47;4976969;28;20042;-86
2023/04/01 04:38:02;;;;;;;21.63;10.25;;;;;;;8.65;100.00;99418.22;4977825;28;20476;-86
2023/04/01 04:40:27;;;;;;;16.42;10.00;;;;;;;8.68;100.00;99417.22;4945338;28;20070;-86
2023/04/01 04:42:53;;;;;;;17.05;9.45;;;;;;;8.69;100.00;99425.88;4960398;28;20030;-86
2023/04/01 04:45:18;;;;;;;24.98;11.07;;;;;;;8.71;100.00;99431.88;4978403;28;20038;-86
2023/04/01 04:47:44;;;;;;;26.58;11.23;;;;;;;8.70;100.00;99438.03;4944675;28;20230;-86
2023/04/01 04:50:10;;;;;;;19.08;10.25;;;;;;;8.71;100.00;99431.88;4961160;28;20030;-86
2023/04/01 04:52:35;;;;;;;19.98;9.77;;;;;;;8.70;100.00;99441.47;4976330;28;20118;-86
2023/04/01 04:55:00;;;;;;;17.00;8.95;;;;;;;8.72;100.00;99447.44;4960748;28;20038;-86
2023/04/01 04:57:26;;;;;;;22.23;10.00;;;;;;;8.72;100.00;99457.06;4978812;28;20166;-86
2023/04/01 04:59:51;;;;;;;22.58;10.98;;;;;;;8.70;100.00;99462.34;4977477;28;20630;-86
2023/04/01 05:02:17;;;;;;;25.52;11.15;;;;;;;8.68;100.00;99458.97;4961477;28;20042;-86
2023/04/01 05:04:42;;;;;;;21.60;10.45;;;;;;;8.69;100.00;99470.25;4978068;28;20030;-86
2023/04/01 05:07:08;;;;;;;19.85;10.40;;;;;;;8.67;100.00;99469.50;4960138;28;20042;-86
2023/04/01 05:09:33;;;;;;;22.95;11.90;;;;;;;8.64;100.00;99478.31;4960045;28;20117;-86
2023/04/01 05:11:59;;;;;;;23.30;12.07;;;;;;;8.61;100.00;99481.97;4977021;28;20037;-86
2023/04/01 05:14:24;;;;;;;32.58;12.25;;;;;;;8.59;100.00;99493.41;4960657;28;20045;-86
2023/04/01 05:16:50;;;;;;;23.10;11.77;;;;;;;8.57;100.00;99496.09;4960437;28;20026;-86
2023/04/01 05:19:15;;;;;;;24.23;12.07;;;;;;;8.60;100.00;99489.88;4976943;28;20053;-86
2023/04/01 05:21:41;;;;;;;22.70;11.00;;;;;;;8.60;100.00;99495.94;4975891;28;20065;-88
2023/04/01 05:24:09;;;;;;;25.33;12.82;;;;;;;8.59;100.00;99496.84;4977565;28;20369;-87
2023/04/01 05:26:36;;;;;;;28.40;12.73;;;;;;;8.59;100.00;99509.91;4943191;28;20038;-88
2023/04/01 05:29:02;;;;;;;29.48;12.80;;;;;;;8.59;100.00;99511.69;4958167;28;20031;-88
2023/04/01 05:31:27;;;;;;;25.17;11.45;;;;;;;8.60;100.00;99510.75;4978498;28;20291;-88
2023/04/01 05:33:53;;;;;;;28.65;12.32;;;;;;;8.58;100.00;99510.81;4974738;28;20046;-88
2023/04/01 05:36:22;;;;;;;25.58;11.55;;;;;;;8.58;100.00;99521.25;4959878;28;20345;-88
2023/04/01 05:38:47;;;;;;;26.65;12.07;;;;;;;8.57;100.00;99516.97;4975261;28;20042;-87
2023/04/01 05:41:14;;;;;;;20.58;10.45;;;;;;;8.58;100.00;99521.25;4976086;28;20035;-87
2023/04/01 05:43:40;;;;;;;25.83;13.27;;;;;;;8.62;100.00;99529.75;4965025;28;20042;-87
2023/04/01 05:46:06;;;;;;;23.05;12.68;;;;;;;8.62;100.00;99534.97;4974486;28;20035;-88
2023/04/01 05:48:34;;;;;;;26.77;12.85;;;;;;;8.61;100.00;99541.97;4976293;28;20377;-88
2023/04/01 05:51:00;;;;;;;28.88;12.57;;;;;;;8.61;100.00;99546.38;4977083;28;20135;-88
2023/04/01 05:53:25;;;;;;;21.17;11.70;;;;;;;8.60;100.00;99550.75;4975641;28;20034;-88
2023/04/01 05:55:51;;;;;;;25.40;11.45;;;;;;;8.61;100.00;99551.59;4975680;28;20372;-88
2023/04/01 05:58:16;;;;;;;21.17;10.43;;;;;;;8.61;100.00;99554.19;4959484;28;20035;-88
2023/04/01 06:00:44;;;;;;;25.83;10.52;;;;;;;8.60;100.00;99553.34;4975012;28;20325;-87
2023/04/01 06:03:09;;;;;;;21.92;11.07;;;;;;;8.62;100.00;99556.72;4975735;28;20047;-88
2023/04/01 06:05:41;;;;;;;25.23;12.18;;;;;;;8.60;100.00;99571.63;4959303;28;20031;-88
2023/04/01 06:08:12;;;;;;;31.20;12.35;;;;;;;8.57;100.00;99584.00;4975078;28;20031;-88
2023/04/01 06:10:38;;;;;;;22.75;10.77;;;;;;;8.55;100.00;99585.81;4974667;28;20042;-85
2023/04/01 06:13:19;;;;;;;27.27;13.18;;;;;;;8.53;100.00;99593.75;4975316;28;20353;-87
2023/04/01 06:16:01;;;;;;;27.77;12.05;;;;;;;8.49;100.00;99601.81;4973717;28;20085;-88
2023/04/01 06:18:48;;;;;;;26.48;13.02;;;;;;;8.40;100.00;99598.72;4975758;28;20034;-88
2023/04/01 06:21:22;;;;;;;25.75;12.32;;;;;;;8.40;100.00;99603.94;4974259;28;20563;-88
2023/04/01 06:23:51;;;;;;;33.17;14.98;;;;;;;8.35;100.00;99611.16;4973972;28;20154;-87
2023/04/01 06:26:39;;;;;;;27.35;12.02;;;;;;;8.33;100.00;99607.78;4974545;28;20057;-88
2023/04/01 06:29:04;;;;;;;30.20;13.13;;;;;;;8.31;100.00;99612.22;4975004;28;20054;-87
2023/04/01 06:32:01;;;;;;;30.05;14.70;;;;;;;8.31;100.00;99613.97;4975164;28;20278;-88
2023/04/01 06:34:37;;;;;;;30.30;12.18;;;;;;;8.28;100.00;99622.81;4975596;28;20022;-88
2023/04/01 06:37:12;;;;;;;27.08;13.45;;;;;;;8.28;100.00;99630.66;4975356;28;20057;-87
2023/04/01 06:40:05;;;;;;;21.13;11.50;;;;;;;8.30;100.00;99627.97;4978590;28;20353;-88
2023/04/01 06:42:33;;;;;;;24.23;12.23;;;;;;;8.32;100.00;99628.72;4978772;28;20045;-87
2023/04/01 06:45:06;;;;;;;23.10;12.32;;;;;;;8.27;100.00;99642.00;4978812;28;20058;-88
2023/04/01 06:47:41;;;;;;;24.08;11.75;;;;;;;8.25;100.00;99636.00;4980467;28;20035;-88
2023/04/01 06:50:15;;;;;;;20.88;12.43;;;;;;;8.24;100.00;99634.31;4979987;28;20050;-88
2023/04/01 06:52:58;;;;;;;26.25;12.35;;;;;;;8.24;100.00;99637.78;4977890;28;20027;-87
2023/04/01 06:55:24;;;;;;;26.42;12.85;;;;;;;8.24;100.00;99644.75;4978469;28;20277;-88
2023/04/01 06:57:53;;;;;;;25.02;12.63;;;;;;;8.25;100.00;99642.06;4977204;28;20034;-88
2023/04/01 07:00:31;;;;;;;24.08;11.50;;;;;;;8.25;100.00;99651.66;4976440;28;20027;-88
2023/04/01 07:03:21;;;;;;;23.38;11.57;;;;;;;8.29;100.00;99654.97;4978805;28;20042;-88
2023/04/01 07:05:48;;;;;;;16.38;9.73;;;;;;;8.26;100.00;99654.19;4978239;28;20322;-87
2023/04/01 07:08:17;;;;;;;15.95;10.02;;;;;;;8.27;100.00;99658.47;4977857;28;20038;-88
2023/04/01 07:10:50;;;;;;;14.82;9.35;;;;;;;8.29;100.00;99660.19;4978105;28;20101;-87
2023/04/01 07:13:31;;;;;;;13.77;9.48;;;;;;;8.31;100.00;99663.56;4978555;28;20042;-87
2023/04/01 07:16:04;;;;;;;12.88;8.63;;;;;;;8.29;100.00;99668.00;4979394;28;20038;-88
2023/04/01 07:18:38;;;;;;;13.07;7.57;;;;;;;8.33;100.00;99666.91;4979009;28;20035;-88
2023/04/01 07:21:05;;;;;;;10.95;7.85;;;;;;;8.34;100.00;99672.06;4979794;28;20238;-88
2023/04/01 07:23:40;;;;;;;9.18;7.18;;;;;;;8.38;100.00;99677.97;4978635;28;20035;-88
2023/04/01 07:26:35;;;;;;;10.13;7.00;;;;;;;8.42;100.00;99688.22;4979374;28;20042;-88
2023/04/01 07:29:00;;;;;;;8.95;6.38;;;;;;;8.43;100.00;99689.06;4949309;28;20054;-87
2023/04/01 07:31:56;;;;;;;7.43;5.60;;;;;;;8.42;100.00;99683.00;4979065;28;20034;-88
2023/04/01 07:34:41;;;;;;;6.25;5.65;;;;;;;8.41;100.00;99694.31;4978590;28;20030;-88
2023/04/01 07:37:38;;;;;;;6.45;5.03;;;;;;;8.46;100.00;99699.34;4969324;28;20536;-88
2023/04/01 07:40:22;;;;;;;6.07;5.25;;;;;;;8.48;100.00;99705.34;4974485;28;20034;-87
2023/04/01 07:43:11;;;;;;;5.32;4.82;;;;;;;8.51;100.00;99705.16;4975282;28;20422;-87
2023/04/01 07:46:04;;;;;;;6.10;5.25;;;;;;;8.51;100.00;99715.59;4974887;28;20026;-87
2023/04/01 07:48:54;;;;;;;7.65;5.78;;;;;;;8.53;100.00;99711.19;4974930;28;20081;-87
2023/04/01 07:51:22;;;;;;;12.80;6.75;;;;;;;8.51;100.00;99726.03;4977132;28;20034;-87
2023/04/01 07:54:06;;;;;;;10.60;6.38;;;;;;;8.50;100.00;99723.53;4976777;28;20297;-87
2023/04/01 07:56:50;;;;;;;11.70;7.55;;;;;;;8.49;100.00;99719.22;4977579;28;20034;-87
2023/04/01 07:59:34;;;;;;;13.98;8.30;;;;;;;8.51;100.00;99728.66;4977319;28;20043;-87
2023/04/01 08:02:14;;;;;;;11.40;7.70;;;;;;;8.52;100.00;99735.56;4975875;28;20034;-87
2023/04/01 08:04:54;;;;;;;14.63;8.63;;;;;;;8.53;100.00;99737.28;4970079;28;20233;-87
2023/04/01 08:07:37;;;;;;;16.10;8.45;;;;;;;8.53;100.00;99747.72;4976865;28;20038;-87
2023/04/01 08:10:09;;;;;;;18.00;8.63;;;;;;;8.53;100.00;99749.44;4978461;28;20053;-87
2023/04/01 08:12:41;;;;;;;15.93;8.35;;;;;;;8.53;100.00;99752.06;4977463;28;20072;-87
2023/04/01 08:15:27;;;;;;;14.48;9.00;;;;;;;8.52;100.00;99758.22;4977221;28;20041;-87
2023/04/01 08:18:03;;;;;;;19.13;8.63;;;;;;;8.50;100.00;99760.06;4976986;28;20026;-88
2023/04/01 08:20:42;;;;;;;16.42;9.20;;;;;;;8.52;100.00;99761.66;4976162;28;20038;-87
2023/04/01 08:23:25;;;;;;;23.77;9.45;;;;;;;8.53;100.00;99762.50;4976916;28;20066;-87
2023/04/01 08:26:04;;;;;;;22.38;9.25;;;;;;;8.54;100.00;99770.25;4978117;28;20101;-87
2023/04/01 08:28:40;;;;;;;20.35;9.93;;;;;;;8.55;100.00;99774.56;4976239;28;20047;-87
2023/04/01 08:31:31;;;;;;;22.80;11.35;;;;;;;8.56;100.00;99772.78;4975781;28;20034;-87
2023/04/01 08:33:56;;;;;;;18.58;9.05;;;;;;;8.59;100.00;99777.88;4977006;28;20038;-87
2023/04/01 08:36:32;;;;;;;20.65;10.07;;;;;;;8.59;100.00;99781.31;4977302;28;20039;-87
2023/04/01 08:39:12;;;;;;;29.15;10.70;;;;;;;8.58;100.00;99782.22;4989078;28;20036;-87
2023/04/01 08:41:49;;;;;;;26.23;10.90;;;;;;;8.60;100.00;99785.63;4975411;28;20092;-87
2023/04/01 08:44:36;;;;;;;23.30;10.25;;;;;;;8.61;100.00;99787.31;4974373;28;20034;-87
2023/04/01 08:47:24;;;;;;;25.98;9.48;;;;;;;8.63;100.00;99793.28;4978770;28;20034;-87
2023/04/01 08:50:07;;;;;;;25.45;11.25;;;;;;;8.62;100.00;99798.56;4976638;28;20329;-87
2023/04/01 08:52:51;;;;;;;26.27;11.48;;;;;;;8.62;100.00;99795.97;4976848;28;20250;-87
2023/04/01 08:55:35;;;;;;;26.33;10.80;;;;;;;8.60;100.00;99798.69;4976792;28;20038;-88
2023/04/01 08:58:19;;;;;;;29.17;11.63;;;;;;;8.61;100.00;99804.75;4977431;28;20034;-87
2023/04/01 09:01:02;;;;;;;21.73;11.02;;;;;;;8.58;100.00;99805.72;4976942;28;20045;-87
2023/04/01 09:03:44;;;;;;;29.52;10.80;;;;;;;8.61;100.00;99813.41;4978098;28;20068;-87
2023/04/01 09:06:25;;;;;;;27.08;10.40;;;;;;;8.61;100.00;99820.41;4976650;28;20015;-87
2023/04/01 09:09:05;;;;;;;21.73;9.13;;;;;;;8.60;100.00;99811.72;4975026;28;20336;-87
2023/04/01 09:11:56;;;;;;;22.92;9.68;;;;;;;8.64;100.00;99820.22;4975701;28;20202;-87
2023/04/01 09:14:59;;;;;;;13.65;7.97;;;;;;;8.64;100.00;99828.94;4975751;28;20041;-87
2023/04/01 09:17:55;;;;;;;12.93;7.55;;;;;;;8.65;100.00;99830.59;4974826;28;20037;-87
2023/04/01 09:20:45;;;;;;;20.52;9.15;;;;;;;8.63;100.00;99837.66;4977039;28;20054;-87
2023/04/01 09:23:47;;;;;;;19.83;9.52;;;;;;;8.60;100.00;99837.84;4977449;28;20041;-87
2023/04/01 09:26:43;;;;;;;18.92;8.85;;;;;;;8.59;100.00;99835.28;4974773;28;20042;-87
2023/04/01 09:29:31;;;;;;;23.23;9.95;;;;;;;8.60;100.00;99843.06;4976323;28;20108;-87
2023/04/01 09:32:26;;;;;;;26.10;11.40;;;;;;;8.60;100.00;99852.63;4977110;28;20050;-88
2023/04/01 09:35:14;;;;;;;24.40;11.68;;;;;;;8.60;100.00;99853.50;4976761;28;20318;-87
2023/04/01 09:37:46;;;;;;;26.70;11.23;;;;;;;8.61;100.00;99847.34;4975143;28;20026;-87
2023/04/01 09:40:20;;;;;;;19.80;9.65;;;;;;;8.63;100.00;99857.69;4976048;28;20042;-87
2023/04/01 09:43:05;;;;;;;20.25;9.95;;;;;;;8.64;100.00;99859.38;4975705;28;20034;-88
2023/04/01 09:46:08;;;;;;;18.00;8.73;;;;;;;8.67;100.00;99855.78;4975919;28;20036;-88
2023/04/01 09:49:10;;;;;;;17.25;8.88;;;;;;;8.69;100.00;99861.78;4975518;28;20038;-88
2023/04/01 09:51:43;;;;;;;19.27;8.98;;;;;;;8.67;100.00;99861.00;4977613;28;20073;-87
2023/04/01 09:54:12;;;;;;;16.98;8.57;;;;;;;8.66;100.00;99860.19;4976099;28;20489;-87
2023/04/01 09:57:15;;;;;;;20.00;8.75;;;;;;;8.68;100.00;99867.91;4976543;28;20118;-88
2023/04/01 10:00:18;;;;;;;17.95;8.30;;;;;;;8.69;100.00;99867.84;4971838;28;20085;-88
2023/04/01 10:03:06;;;;;;;18.42;7.88;;;;;;;8.69;100.00;99878.28;4975192;28;20295;-87
2023/04/01 10:05:37;;;;;;;13.07;7.40;;;;;;;8.72;100.00;99880.75;4943907;28;20373;-87
2023/04/01 10:08:21;;;;;;;16.60;7.20;;;;;;;8.72;100.00;99879.91;4974044;28;20338;-87
2023/04/01 10:11:08;;;;;;;16.30;6.25;;;;;;;8.73;100.00;99873.75;4975125;28;20043;-87
2023/04/01 10:13:33;;;;;;;12.00;6.28;;;;;;;8.74;100.00;99889.34;4971391;28;20082;-88
2023/04/01 10:16:19;;;;;;;13.02;7.32;;;;;;;8.74;100.00;99891.97;4975793;28;20031;-87
2023/04/01 10:19:06;;;;;;;11.02;6.85;;;;;;;8.76;100.00;99897.94;4972919;28;20034;-87
2023/04/01 10:21:51;;;;;;;16.50;7.40;;;;;;;8.77;100.00;99889.22;4973856;28;21280;-87
2023/04/01 10:24:41;;;;;;;19.00;8.77;;;;;;;8.77;100.00;99898.81;4975505;28;20297;-87
2023/04/01 10:27:22;;;;;;;14.07;7.45;;;;;;;8.80;100.00;99898.66;4975334;28;20058;-87
2023/04/01 10:30:03;;;;;;;22.77;8.95;;;;;;;8.82;100.00;99907.25;4974117;28;20485;-87
2023/04/01 10:32:53;;;;;;;22.33;8.90;;;;;;;8.80;100.00;99904.75;4976766;28;20322;-88
2023/04/01 10:35:40;;;;;;;21.80;9.05;;;;;;;8.82;100.00;99904.63;4974749;28;20066;-87
2023/04/01 10:38:35;;;;;;;16.17;8.75;;;;;;;8.84;100.00;99911.50;4974192;28;20031;-87
2023/04/01 10:41:17;;;;;;;27.92;10.98;;;;;;;8.84;100.00;99910.63;4974792;28;20276;-87
2023/04/01 10:44:27;;;;;;;24.42;10.98;;;;;;;8.84;100.00;99913.25;4975974;28;20042;-88
2023/04/01 10:47:30;;;;;;;15.55;8.68;;;;;;;8.84;100.00;99914.09;4974899;28;20046;-88
2023/04/01 10:50:19;;;;;;;18.27;8.50;;;;;;;8.87;100.00;99917.47;4975766;28;20290;-87
2023/04/01 10:52:59;;;;;;;13.07;6.93;;;;;;;8.88;100.00;99925.25;4976252;28;20027;-88
2023/04/01 10:55:37;;;;;;;14.50;7.80;;;;;;;8.90;100.00;99927.78;4975203;28;20042;-88
2023/04/01 10:58:20;;;;;;;14.77;7.90;;;;;;;8.90;100.00;99926.00;4975604;28;20339;-88
2023/04/01 11:00:58;;;;;;;16.63;8.10;;;;;;;8.89;100.00;99929.53;4975967;28;20049;-88
2023/04/01 11:03:44;;;;;;;14.07;7.25;;;;;;;8.91;100.00;99930.28;4975502;28;20381;-87
2023/04/01 11:06:31;;;;;;;24.77;9.32;;;;;;;8.90;100.00;99935.63;4974526;28;20041;-87
2023/04/01 11:09:09;;;;;;;19.98;8.60;;;;;;;8.89;100.00;99937.38;4972729;28;20117;-87
2023/04/01 11:11:56;;;;;;;20.23;8.98;;;;;;;8.88;100.00;99934.81;4974992;28;20046;-88
2023/04/01 11:14:44;;;;;;;20.40;9.10;;;;;;;8.86;100.00;99945.38;4972945;28;20289;-87
2023/04/01 11:17:22;;;;;;;15.35;8.18;;;;;;;8.87;100.00;99941.81;4974146;28;20027;-87
2023/04/01 11:20:18;;;;;;;25.40;9.55;;;;;;;8.88;100.00;99943.53;4973977;28;20326;-87
2023/04/01 11:22:50;;;;;;;19.25;8.82;;;;;;;8.88;100.00;99948.75;4976106;28;20050;-87
2023/04/01 11:25:33;;;;;;;17.77;8.35;;;;;;;8.90;100.00;99954.75;4977668;28;20460;-87
2023/04/01 11:28:11;;;;;;;25.25;9.95;;;;;;;8.88;100.00;99955.72;4979712;28;20045;-87
2023/04/01 11:30:36;;;;;;;22.50;9.88;;;;;;;8.88;100.00;99955.72;4977916;28;20039;-87
2023/04/01 11:33:23;;;;;;;28.02;10.88;;;;;;;8.87;100.00;99954.03;4979130;28;20041;-87
2023/04/01 11:36:21;;;;;;;23.45;10.00;;;;;;;8.85;100.00;99961.94;4978169;28;20039;-87
2023/04/01 11:39:03;;;;;;;25.73;10.90;;;;;;;8.87;100.00;99967.94;4975072;28;20061;-87
2023/04/01 11:41:43;;;;;;;32.20;10.75;;;;;;;8.89;100.00;99963.47;4978139;28;20030;-89
2023/04/01 11:44:23;;;;;;;24.23;10.18;;;;;;;8.92;100.00;99967.72;4976793;28;20334;-88
2023/04/01 11:47:08;;;;;;;24.67;10.20;;;;;;;8.95;100.00;99970.16;4977098;28;20117;-87
2023/04/01 11:49:59;;;;;;;26.98;10.65;;;;;;;8.97;100.00;99978.81;4975439;28;20046;-88
2023/04/01 11:52:43;;;;;;;26.60;11.00;;;;;;;9.00;100.00;99981.25;4977417;28;20015;-87
2023/04/01 11:55:27;;;;;;;33.45;11.35;;;;;;;8.98;100.00;99986.53;4980189;28;20124;-87
2023/04/01 11:58:11;;;;;;;28.17;11.27;;;;;;;8.99;100.00;99980.41;4979226;28;20476;-87